VLG2KL LEBL-LEPA
Flight info
| Callsign | VLG2KL |
|---|---|
| Flight time | 0h 34m |
| Altitude | 19000 |
| Route | LARPA N859 TOLSO |
| Aircraft | A320/M-SDE3FGHIRWY/LB1 |
Departure
| Time | 2026-05-07 17:04 |
|---|---|
| Airport | Josep Tarradellas Barcelona-El Prat Airport (LEBL) |
Arrival
| Time | 2026-05-07 17:39 |
|---|---|
| Airport | Palma de Mallorca Airport (LEPA) |
| Time | Latitude | Longitude | Altitude | Speed | Heading |
|---|---|---|---|---|---|
| 2026-05-07 16:26 | 41.29029 | 2.08050 | 19 ft | 0 kts | 336° |
| 2026-05-07 16:54 | 41.29016 | 2.08057 | 19 ft | 2 kts | 337° |
| 2026-05-07 16:55 | 41.29002 | 2.08065 | 19 ft | 2 kts | 339° |
| 2026-05-07 16:55 | 41.28986 | 2.08072 | 20 ft | 2 kts | 343° |
| 2026-05-07 16:55 | 41.28970 | 2.08078 | 21 ft | 2 kts | 356° |
| 2026-05-07 16:55 | 41.28954 | 2.08075 | 20 ft | 2 kts | 46° |
| 2026-05-07 16:56 | 41.28947 | 2.08063 | 23 ft | 1 kts | 66° |
| 2026-05-07 16:56 | 41.28946 | 2.08062 | 23 ft | 0 kts | 65° |
| 2026-05-07 16:58 | 41.28949 | 2.08069 | 23 ft | 3 kts | 64° |
| 2026-05-07 16:58 | 41.28954 | 2.08101 | 22 ft | 4 kts | 99° |
| 2026-05-07 16:58 | 41.28909 | 2.08145 | 20 ft | 10 kts | 150° |
| 2026-05-07 16:58 | 41.28842 | 2.08189 | 20 ft | 12 kts | 156° |
| 2026-05-07 16:59 | 41.28751 | 2.08233 | 16 ft | 16 kts | 174° |
| 2026-05-07 16:59 | 41.28668 | 2.08168 | 17 ft | 14 kts | 244° |
| 2026-05-07 16:59 | 41.28629 | 2.08056 | 17 ft | 13 kts | 246° |
| 2026-05-07 16:59 | 41.28594 | 2.07953 | 17 ft | 12 kts | 245° |
| 2026-05-07 17:00 | 41.28556 | 2.07837 | 18 ft | 17 kts | 246° |
| 2026-05-07 17:00 | 41.28510 | 2.07702 | 18 ft | 15 kts | 245° |
| 2026-05-07 17:00 | 41.28467 | 2.07581 | 16 ft | 14 kts | 245° |
| 2026-05-07 17:00 | 41.28429 | 2.07472 | 17 ft | 12 kts | 245° |
| 2026-05-07 17:01 | 41.28395 | 2.07375 | 17 ft | 11 kts | 239° |
| 2026-05-07 17:01 | 41.28335 | 2.07339 | 16 ft | 9 kts | 175° |
| 2026-05-07 17:01 | 41.28328 | 2.07341 | 16 ft | 0 kts | 165° |
| 2026-05-07 17:02 | 41.28321 | 2.07344 | 16 ft | 2 kts | 162° |
| 2026-05-07 17:02 | 41.28318 | 2.07345 | 18 ft | 0 kts | 162° |
| 2026-05-07 17:03 | 41.28300 | 2.07355 | 16 ft | 9 kts | 157° |
| 2026-05-07 17:03 | 41.28245 | 2.07388 | 18 ft | 7 kts | 150° |
| 2026-05-07 17:03 | 41.28234 | 2.07435 | 18 ft | 4 kts | 81° |
| 2026-05-07 17:03 | 41.28238 | 2.07453 | 18 ft | 0 kts | 69° |
| 2026-05-07 17:04 | 41.28284 | 2.07585 | 20 ft | 47 kts | 65° |
| 2026-05-07 17:04 | 41.28517 | 2.08270 | 23 ft | 112 kts | 65° |
| 2026-05-07 17:04 | 41.28913 | 2.09426 | 92 ft | 156 kts | 66° |
| 2026-05-07 17:04 | 41.29350 | 2.10784 | 731 ft | 161 kts | 79° |
| 2026-05-07 17:05 | 41.29346 | 2.12259 | 1473 ft | 164 kts | 98° |
| 2026-05-07 17:05 | 41.29187 | 2.13850 | 1890 ft | 185 kts | 97° |
| 2026-05-07 17:05 | 41.29010 | 2.15643 | 2394 ft | 202 kts | 98° |
| 2026-05-07 17:05 | 41.28830 | 2.17505 | 3236 ft | 205 kts | 97° |
| 2026-05-07 17:06 | 41.28651 | 2.19392 | 4047 ft | 208 kts | 97° |
| 2026-05-07 17:06 | 41.28468 | 2.21305 | 4889 ft | 210 kts | 97° |
| 2026-05-07 17:06 | 41.28280 | 2.23260 | 5626 ft | 215 kts | 97° |
| 2026-05-07 17:06 | 41.28089 | 2.25240 | 6440 ft | 218 kts | 97° |
| 2026-05-07 17:07 | 41.27896 | 2.27240 | 7208 ft | 220 kts | 97° |
| 2026-05-07 17:07 | 41.27704 | 2.29250 | 7936 ft | 224 kts | 97° |
| 2026-05-07 17:07 | 41.27371 | 2.31324 | 8620 ft | 232 kts | 111° |
| 2026-05-07 17:07 | 41.26669 | 2.33353 | 8997 ft | 255 kts | 115° |
| 2026-05-07 17:08 | 41.25859 | 2.35569 | 9408 ft | 278 kts | 116° |
| 2026-05-07 17:08 | 41.24993 | 2.37922 | 10098 ft | 287 kts | 116° |
| 2026-05-07 17:08 | 41.24086 | 2.40392 | 10459 ft | 309 kts | 116° |
| 2026-05-07 17:08 | 41.23115 | 2.43050 | 10852 ft | 328 kts | 116° |
| 2026-05-07 17:09 | 41.22107 | 2.45816 | 11527 ft | 335 kts | 116° |
| 2026-05-07 17:09 | 41.21086 | 2.48616 | 12287 ft | 340 kts | 116° |
| 2026-05-07 17:09 | 41.20048 | 2.51458 | 13047 ft | 344 kts | 117° |
| 2026-05-07 17:09 | 41.18997 | 2.54335 | 13785 ft | 349 kts | 116° |
| 2026-05-07 17:10 | 41.17928 | 2.57253 | 14433 ft | 353 kts | 117° |
| 2026-05-07 17:10 | 41.16847 | 2.60190 | 15095 ft | 356 kts | 120° |
| 2026-05-07 17:10 | 41.15420 | 2.62871 | 15726 ft | 357 kts | 136° |
| 2026-05-07 17:10 | 41.13480 | 2.64916 | 16376 ft | 358 kts | 152° |
| 2026-05-07 17:11 | 41.11182 | 2.66168 | 17029 ft | 358 kts | 168° |
| 2026-05-07 17:11 | 41.08713 | 2.66502 | 17716 ft | 358 kts | 184° |
| 2026-05-07 17:11 | 41.06230 | 2.66229 | 18398 ft | 359 kts | 186° |
| 2026-05-07 17:11 | 41.03735 | 2.65947 | 18805 ft | 361 kts | 186° |
| 2026-05-07 17:12 | 41.01238 | 2.65675 | 18922 ft | 359 kts | 186° |
| 2026-05-07 17:12 | 40.98782 | 2.65412 | 18950 ft | 351 kts | 186° |
| 2026-05-07 17:12 | 40.96375 | 2.65049 | 18947 ft | 348 kts | 193° |
| 2026-05-07 17:12 | 40.94075 | 2.64101 | 18950 ft | 346 kts | 204° |
| 2026-05-07 17:13 | 40.91981 | 2.62546 | 18954 ft | 345 kts | 215° |
| 2026-05-07 17:13 | 40.90056 | 2.60708 | 18956 ft | 346 kts | 216° |
| 2026-05-07 17:13 | 40.88106 | 2.58849 | 18951 ft | 346 kts | 215° |
| 2026-05-07 17:13 | 40.86154 | 2.56993 | 18952 ft | 345 kts | 215° |
| 2026-05-07 17:14 | 40.84203 | 2.55147 | 18948 ft | 345 kts | 215° |
| 2026-05-07 17:14 | 40.82249 | 2.53301 | 18949 ft | 345 kts | 215° |
| 2026-05-07 17:14 | 40.80296 | 2.51453 | 18952 ft | 345 kts | 215° |
| 2026-05-07 17:14 | 40.78342 | 2.49608 | 18952 ft | 345 kts | 215° |
| 2026-05-07 17:15 | 40.76387 | 2.47768 | 18958 ft | 346 kts | 215° |
| 2026-05-07 17:15 | 40.74427 | 2.45925 | 18956 ft | 346 kts | 215° |
| 2026-05-07 17:15 | 40.72470 | 2.44086 | 18958 ft | 346 kts | 215° |
| 2026-05-07 17:15 | 40.70513 | 2.42244 | 18959 ft | 346 kts | 215° |
| 2026-05-07 17:16 | 40.68557 | 2.40407 | 18956 ft | 345 kts | 215° |
| 2026-05-07 17:16 | 40.66599 | 2.38573 | 18956 ft | 345 kts | 214° |
| 2026-05-07 17:16 | 40.64514 | 2.37020 | 18960 ft | 345 kts | 202° |
| 2026-05-07 17:16 | 40.62209 | 2.36161 | 18956 ft | 345 kts | 189° |
| 2026-05-07 17:17 | 40.59811 | 2.36059 | 18954 ft | 347 kts | 176° |
| 2026-05-07 17:17 | 40.57436 | 2.36686 | 18956 ft | 349 kts | 167° |
| 2026-05-07 17:17 | 40.55094 | 2.37516 | 18947 ft | 349 kts | 167° |
| 2026-05-07 17:17 | 40.52747 | 2.38342 | 18948 ft | 349 kts | 167° |
| 2026-05-07 17:18 | 40.50449 | 2.39248 | 18946 ft | 350 kts | 160° |
| 2026-05-07 17:18 | 40.48272 | 2.40698 | 18949 ft | 353 kts | 150° |
| 2026-05-07 17:18 | 40.46188 | 2.42409 | 18943 ft | 353 kts | 150° |
| 2026-05-07 17:18 | 40.44103 | 2.44118 | 18940 ft | 354 kts | 150° |
| 2026-05-07 17:19 | 40.42013 | 2.45824 | 18943 ft | 353 kts | 150° |
| 2026-05-07 17:19 | 40.39924 | 2.47529 | 18946 ft | 353 kts | 150° |
| 2026-05-07 17:19 | 40.37835 | 2.49235 | 18945 ft | 353 kts | 150° |
| 2026-05-07 17:19 | 40.35751 | 2.50938 | 18940 ft | 353 kts | 150° |
| 2026-05-07 17:20 | 40.33668 | 2.52641 | 18943 ft | 353 kts | 150° |
| 2026-05-07 17:20 | 40.31583 | 2.54347 | 18929 ft | 352 kts | 150° |
| 2026-05-07 17:20 | 40.29539 | 2.56017 | 18788 ft | 340 kts | 150° |
| 2026-05-07 17:20 | 40.27556 | 2.57636 | 18528 ft | 333 kts | 150° |
| 2026-05-07 17:21 | 40.25593 | 2.59233 | 18131 ft | 330 kts | 150° |
| 2026-05-07 17:21 | 40.23646 | 2.60818 | 17697 ft | 329 kts | 150° |
| 2026-05-07 17:21 | 40.21711 | 2.62393 | 17277 ft | 326 kts | 149° |
| 2026-05-07 17:21 | 40.19798 | 2.63951 | 16929 ft | 322 kts | 149° |
| 2026-05-07 17:22 | 40.17843 | 2.65327 | 16641 ft | 315 kts | 162° |
| 2026-05-07 17:22 | 40.15767 | 2.65870 | 16506 ft | 295 kts | 175° |
| 2026-05-07 17:22 | 40.13789 | 2.66112 | 16381 ft | 276 kts | 175° |
| 2026-05-07 17:22 | 40.11902 | 2.66333 | 16256 ft | 269 kts | 175° |
| 2026-05-07 17:23 | 40.10065 | 2.66547 | 16127 ft | 262 kts | 175° |
| 2026-05-07 17:23 | 40.08276 | 2.66754 | 15984 ft | 255 kts | 175° |
| 2026-05-07 17:23 | 40.06512 | 2.66955 | 15770 ft | 253 kts | 175° |
| 2026-05-07 17:23 | 40.04790 | 2.67153 | 15543 ft | 250 kts | 175° |
| 2026-05-07 17:24 | 40.03052 | 2.67333 | 15267 ft | 250 kts | 179° |
| 2026-05-07 17:24 | 40.01348 | 2.66896 | 14978 ft | 253 kts | 202° |
| 2026-05-07 17:24 | 39.99741 | 2.65960 | 14715 ft | 253 kts | 201° |
| 2026-05-07 17:24 | 39.98143 | 2.65011 | 14429 ft | 253 kts | 202° |
| 2026-05-07 17:25 | 39.96545 | 2.64061 | 14196 ft | 252 kts | 202° |
| 2026-05-07 17:25 | 39.94949 | 2.63115 | 13947 ft | 252 kts | 201° |
| 2026-05-07 17:25 | 39.93872 | 2.62477 | 13775 ft | 251 kts | 202° |
| 2026-05-07 17:25 | 39.92303 | 2.61547 | 13503 ft | 251 kts | 202° |
| 2026-05-07 17:26 | 39.90716 | 2.60607 | 13173 ft | 251 kts | 202° |
| 2026-05-07 17:26 | 39.89125 | 2.59668 | 12884 ft | 251 kts | 201° |
| 2026-05-07 17:26 | 39.87547 | 2.58734 | 12609 ft | 249 kts | 202° |
| 2026-05-07 17:26 | 39.85966 | 2.57798 | 12317 ft | 248 kts | 201° |
| 2026-05-07 17:27 | 39.84399 | 2.56871 | 12038 ft | 247 kts | 202° |
| 2026-05-07 17:27 | 39.82831 | 2.55947 | 11718 ft | 248 kts | 202° |
| 2026-05-07 17:27 | 39.81263 | 2.55027 | 11416 ft | 247 kts | 203° |
| 2026-05-07 17:27 | 39.79695 | 2.54107 | 11113 ft | 247 kts | 202° |
| 2026-05-07 17:28 | 39.78127 | 2.53186 | 10833 ft | 247 kts | 202° |
| 2026-05-07 17:28 | 39.76565 | 2.52268 | 10588 ft | 247 kts | 203° |
| 2026-05-07 17:28 | 39.75001 | 2.51348 | 10322 ft | 247 kts | 201° |
| 2026-05-07 17:28 | 39.73437 | 2.50431 | 10073 ft | 247 kts | 201° |
| 2026-05-07 17:29 | 39.71876 | 2.49514 | 9834 ft | 246 kts | 202° |
| 2026-05-07 17:29 | 39.70323 | 2.48600 | 9555 ft | 245 kts | 202° |
| 2026-05-07 17:29 | 39.68772 | 2.47689 | 9280 ft | 244 kts | 202° |
| 2026-05-07 17:29 | 39.67232 | 2.46785 | 9072 ft | 240 kts | 203° |
| 2026-05-07 17:30 | 39.65754 | 2.45915 | 8909 ft | 225 kts | 202° |
| 2026-05-07 17:30 | 39.64363 | 2.45098 | 8691 ft | 216 kts | 202° |
| 2026-05-07 17:30 | 39.62970 | 2.44284 | 8121 ft | 224 kts | 201° |
| 2026-05-07 17:30 | 39.61530 | 2.43442 | 7600 ft | 229 kts | 201° |
| 2026-05-07 17:31 | 39.60082 | 2.42596 | 7236 ft | 227 kts | 201° |
| 2026-05-07 17:31 | 39.58649 | 2.41760 | 6907 ft | 223 kts | 202° |
| 2026-05-07 17:31 | 39.57249 | 2.40945 | 6619 ft | 217 kts | 200° |
| 2026-05-07 17:31 | 39.55834 | 2.40483 | 6334 ft | 205 kts | 182° |
| 2026-05-07 17:32 | 39.54460 | 2.40610 | 6034 ft | 198 kts | 163° |
| 2026-05-07 17:32 | 39.53201 | 2.41252 | 5736 ft | 193 kts | 146° |
| 2026-05-07 17:32 | 39.52101 | 2.42250 | 5458 ft | 188 kts | 142° |
| 2026-05-07 17:32 | 39.51037 | 2.43251 | 5196 ft | 188 kts | 141° |
| 2026-05-07 17:33 | 39.50011 | 2.44209 | 4935 ft | 181 kts | 141° |
| 2026-05-07 17:33 | 39.49012 | 2.45141 | 4687 ft | 173 kts | 140° |
| 2026-05-07 17:33 | 39.48049 | 2.46040 | 4456 ft | 169 kts | 140° |
| 2026-05-07 17:33 | 39.47104 | 2.46924 | 4152 ft | 167 kts | 140° |
| 2026-05-07 17:34 | 39.46194 | 2.47840 | 3846 ft | 164 kts | 129° |
| 2026-05-07 17:34 | 39.45591 | 2.49051 | 3548 ft | 159 kts | 107° |
| 2026-05-07 17:34 | 39.45402 | 2.50442 | 3242 ft | 158 kts | 86° |
| 2026-05-07 17:34 | 39.45633 | 2.51812 | 2974 ft | 155 kts | 67° |
| 2026-05-07 17:35 | 39.46164 | 2.53023 | 2619 ft | 156 kts | 60° |
| 2026-05-07 17:35 | 39.46728 | 2.54241 | 2327 ft | 156 kts | 59° |
| 2026-05-07 17:35 | 39.47283 | 2.55427 | 2269 ft | 156 kts | 59° |
| 2026-05-07 17:35 | 39.47850 | 2.56617 | 2137 ft | 155 kts | 59° |
| 2026-05-07 17:36 | 39.48415 | 2.57801 | 2018 ft | 154 kts | 59° |
| 2026-05-07 17:36 | 39.48976 | 2.58975 | 1894 ft | 153 kts | 59° |
| 2026-05-07 17:36 | 39.49531 | 2.60139 | 1806 ft | 152 kts | 59° |
| 2026-05-07 17:36 | 39.50084 | 2.61304 | 1722 ft | 152 kts | 59° |
| 2026-05-07 17:37 | 39.50640 | 2.62479 | 1556 ft | 153 kts | 59° |
| 2026-05-07 17:37 | 39.51191 | 2.63640 | 1376 ft | 150 kts | 58° |
| 2026-05-07 17:37 | 39.51722 | 2.64759 | 1178 ft | 142 kts | 57° |
| 2026-05-07 17:37 | 39.52221 | 2.65812 | 1011 ft | 135 kts | 58° |
| 2026-05-07 17:38 | 39.52707 | 2.66835 | 822 ft | 133 kts | 59° |
| 2026-05-07 17:38 | 39.53191 | 2.67857 | 641 ft | 133 kts | 58° |
| 2026-05-07 17:38 | 39.53680 | 2.68887 | 467 ft | 132 kts | 58° |
| 2026-05-07 17:38 | 39.54160 | 2.69900 | 277 ft | 135 kts | 56° |
| 2026-05-07 17:39 | 39.54644 | 2.70898 | 100 ft | 129 kts | 58° |
| 2026-05-07 17:39 | 39.55084 | 2.71835 | 29 ft | 104 kts | 59° |
| 2026-05-07 17:39 | 39.55354 | 2.72406 | 28 ft | 46 kts | 58° |
| 2026-05-07 17:39 | 39.55465 | 2.72668 | 29 ft | 29 kts | 70° |
| 2026-05-07 17:40 | 39.55494 | 2.72863 | 31 ft | 19 kts | 89° |
| 2026-05-07 17:40 | 39.55496 | 2.72985 | 32 ft | 0 kts | 90° |
| 2026-05-07 17:40 | 39.55496 | 2.72987 | 32 ft | 1 kts | 90° |
| 2026-05-07 17:41 | 39.55496 | 2.72988 | 32 ft | 0 kts | 90° |
| 2026-05-07 17:42 | 39.55496 | 2.73028 | 32 ft | 10 kts | 89° |
| 2026-05-07 17:42 | 39.55499 | 2.73118 | 32 ft | 10 kts | 85° |
| 2026-05-07 17:42 | 39.55516 | 2.73208 | 31 ft | 11 kts | 64° |
| 2026-05-07 17:43 | 39.55555 | 2.73293 | 32 ft | 12 kts | 59° |
| 2026-05-07 17:43 | 39.55604 | 2.73401 | 34 ft | 15 kts | 59° |
| 2026-05-07 17:43 | 39.55606 | 2.73514 | 33 ft | 14 kts | 144° |
| 2026-05-07 17:43 | 39.55524 | 2.73577 | 34 ft | 14 kts | 148° |
| 2026-05-07 17:44 | 39.55437 | 2.73645 | 33 ft | 20 kts | 149° |
| 2026-05-07 17:44 | 39.55299 | 2.73755 | 34 ft | 25 kts | 148° |
| 2026-05-07 17:44 | 39.55152 | 2.73874 | 32 ft | 23 kts | 146° |
| 2026-05-07 17:44 | 39.55013 | 2.73980 | 33 ft | 24 kts | 150° |
| 2026-05-07 17:45 | 39.54874 | 2.74089 | 32 ft | 19 kts | 150° |
| 2026-05-07 17:45 | 39.54791 | 2.74115 | 33 ft | 11 kts | 210° |
| 2026-05-07 17:45 | 39.54748 | 2.74040 | 33 ft | 9 kts | 236° |
| 2026-05-07 17:45 | 39.54716 | 2.73975 | 34 ft | 7 kts | 240° |
| 2026-05-07 17:46 | 39.54693 | 2.73926 | 34 ft | 5 kts | 238° |
| 2026-05-07 17:46 | 39.54679 | 2.73897 | 34 ft | 4 kts | 238° |
| 2026-05-07 17:46 | 39.54656 | 2.73849 | 34 ft | 8 kts | 238° |
| 2026-05-07 17:46 | 39.54623 | 2.73775 | 35 ft | 9 kts | 240° |
| 2026-05-07 17:47 | 39.54592 | 2.73707 | 35 ft | 8 kts | 239° |
| 2026-05-07 17:47 | 39.54602 | 2.73635 | 35 ft | 9 kts | 317° |
| 2026-05-07 17:47 | 39.54598 | 2.73542 | 36 ft | 13 kts | 237° |
| 2026-05-07 17:47 | 39.54553 | 2.73451 | 36 ft | 11 kts | 239° |
| 2026-05-07 17:48 | 39.54516 | 2.73371 | 37 ft | 10 kts | 238° |
| 2026-05-07 17:48 | 39.54484 | 2.73303 | 37 ft | 8 kts | 238° |
| 2026-05-07 17:48 | 39.54462 | 2.73249 | 37 ft | 4 kts | 264° |
| 2026-05-07 17:48 | 39.54488 | 2.73232 | 36 ft | 4 kts | 349° |
| 2026-05-07 17:49 | 39.54503 | 2.73228 | 37 ft | 0 kts | 347° |